Sturgeon Bay, WI (54235)

11:13 AM CDT on August 24, 2016 (GMT -0500)
Leif Everson Observatory | | Change Station
Active Advisory: Beach Hazard Statement Active Notice: Local Storm Report

Elev 636 ft 44.83 °N, 87.34 °W | Updated 9 minutes ago

Partly Cloudy
Partly Cloudy
72.1 °F
Feels Like 72.1 °F
N
4.0
Wind Variable Wind from WSW
Gusts 4.0 mph

Today
High -- | Low -- °F
--% Chance of Precip.
Yesterday
High -- | Low -- °F
Precip. -- in
Pressure 29.90 in
Visibility 10.0 miles
Clouds Few 1100 ft
Dew Point 72 °F
Humidity 100%
Rainfall 0.67 in
Snow Depth Not available.
6:02 AM 7:39 PM
Waning Gibbous, 55% visible
METAR KSUE 241556Z AUTO 21008KT 10SM FEW011 22/21 A2986 RMK AO2 SLP125 P0019 T02220206
Pressure 29.90 in
Visibility 10.0 miles
Clouds Few 1100 ft
Dew Point 72 °F
Humidity 100%
Rainfall 0.67 in
Snow Depth Not available.
6:02 AM 7:39 PM
Waning Gibbous, 55% visible
METAR KSUE 241556Z AUTO 21008KT 10SM FEW011 22/21 A2986 RMK AO2 SLP125 P0019 T02220206

10-Day Weather Forecast

Almanac

Astronomy

Aug. 24, 2016 Rise Set
Actual Time
Civil Twilight
Nautical Twilight
Astronomical Twilight
Moon
Length of Visible Light
Length of Day
Tomorrow will be .
, % of the Moon is Illuminated

Today's Extremes

State Highs State Lows

Community

WunderPhotos

Upload Photos

1,934,648 photos uploaded!

WunderBlog® & News

Nearby

Air Quality

  Air Quality AQ Index Pollutant
Not available.

Snow Depth

Station Depth Elevation

Earthquake Activity

City Distance Mag. Time & Date
Minimum magnitude displayed is 2.5.

Coastal Water Temperatures

Place Temperature

Stations

Nearby Weather Stations

Station Location Temp. Windchill Dew Point Humidity Wind Precip. Elev Updated Type
                   

Watches & Warnings

Beach Hazard Statement
Issued: 9:53 AM CDT Aug. 24, 2016 – National Weather Service

... Beach hazards statement remains in effect through this
evening...

* high wave action... strong currents and dangerous swimming
conditions expected.

* Locations...

beaches of Door County including Rock Island state beach...
Baileys Harbor beaches... and Whitefish Dunes Beach.

Beaches of Kewaunee County including Cresent Beach and city of
Kewaunee beach.

Beaches of Manitowoc County including Point Beach... neshotah
beach... and red arrow beach.

* Strong south winds will continue to bring waves of 3 to 7 feet
through mid-evening to the Lake Michigan shore of northeast
Wisconsin... resulting in dangerous swimming conditions.

Precautionary/preparedness actions...

High wave action makes swimming difficult as waves on the Great
Lakes occur in rapid succession. High wave action also leads to
strong currents.



Mpc